Terminal Aerodrome Forecast
Issued by NWS Sterling, VA

Home | Current Version | Previous Version | Text Only | Print | Product List | Glossary On
Versions: 1 2 3 4 5 6 7 8 9 10 11 12 13 14 15 16 17 18 19 20 21 22 23 24
000
FTUS41 KLWX 280859 AAA
TAFBWI
TAF AMD
KBWI 280859Z 2809/2912 VRB03KT P6SM SCT090
     FM281100 07004KT 5SM BR BKN025
     FM281400 10005KT P6SM BKN025
     FM290000 12008KT P6SM -SHRA OVC025
     FM290200 12009KT P6SM -SHRA OVC008
     FM290600 13006KT P6SM OVC010
     FM290900 13005KT P6SM OVC003=

USA.gov is the U.S. government's official web portal to all federal, state and local government web resources and services.